createdAt,value
2017-06-22T00:01:15.426Z,23.54
2017-06-22T00:02:15.643Z,23.5
2017-06-22T00:03:15.579Z,23.58
2017-06-22T00:04:15.515Z,23.55
2017-06-22T00:05:15.155Z,23.54
2017-06-22T00:06:15.547Z,23.43
2017-06-22T00:07:15.335Z,23.56
2017-06-22T00:08:15.267Z,23.44
2017-06-22T00:09:14.908Z,23.41
2017-06-22T00:10:15.147Z,23.56
2017-06-22T00:11:14.933Z,23.5
2017-06-22T00:12:15.027Z,23.44
2017-06-22T00:13:14.959Z,23.54
2017-06-22T00:14:14.907Z,23.46
2017-06-22T00:15:14.839Z,23.44
2017-06-22T00:16:14.799Z,23.5
2017-06-22T00:17:14.713Z,23.56
2017-06-22T00:18:14.652Z,23.46
2017-06-22T00:19:14.588Z,23.44
2017-06-22T00:20:14.528Z,23.47
2017-06-22T00:21:14.163Z,23.5
2017-06-22T00:22:14.401Z,23.54
2017-06-22T00:23:14.343Z,23.51
2017-06-22T00:24:14.278Z,23.55
2017-06-22T00:25:14.215Z,23.41
2017-06-22T00:26:14.151Z,23.41
2017-06-22T00:27:14.090Z,23.47
2017-06-22T00:28:14.028Z,23.46
2017-06-22T00:29:13.968Z,23.43
2017-06-22T00:30:13.906Z,23.44
2017-06-22T00:31:13.843Z,23.44
2017-06-22T00:32:13.780Z,23.46
2017-06-22T00:33:13.718Z,23.44
2017-06-22T00:34:13.654Z,23.5
2017-06-22T00:35:13.598Z,23.41
2017-06-22T00:36:13.531Z,23.43
2017-06-22T00:37:13.471Z,23.47
2017-06-22T00:38:13.411Z,23.4
2017-06-22T00:39:13.044Z,23.46
2017-06-22T00:40:13.287Z,23.44
2017-06-22T00:41:12.921Z,23.48
2017-06-22T00:42:13.261Z,23.4
2017-06-22T00:43:13.096Z,23.5
2017-06-22T00:44:13.034Z,23.44
2017-06-22T00:45:12.974Z,23.43
2017-06-22T00:46:12.912Z,23.43
2017-06-22T00:47:13.000Z,23.44
2017-06-22T00:48:12.182Z,23.44
2017-06-22T00:49:12.724Z,23.44
2017-06-22T00:50:12.676Z,23.47
2017-06-22T00:51:12.603Z,23.43
2017-06-22T00:52:12.539Z,23.41
2017-06-22T00:53:12.484Z,23.46
2017-06-22T00:54:12.417Z,23.44
2017-06-22T00:55:12.051Z,23.44
2017-06-22T00:56:12.290Z,23.32
2017-06-22T00:57:12.384Z,23.46
2017-06-22T00:58:12.171Z,23.46
2017-06-22T00:59:12.102Z,23.44
2017-06-22T01:00:12.045Z,23.46
2017-06-22T01:01:11.986Z,23.39
2017-06-22T01:02:11.917Z,23.47
2017-06-22T01:03:11.855Z,23.43
2017-06-22T01:04:11.796Z,23.36
2017-06-22T01:05:11.733Z,23.46
2017-06-22T01:06:11.671Z,23.44
2017-06-22T01:07:11.608Z,23.36
2017-06-22T01:08:11.545Z,23.39
2017-06-22T01:09:11.182Z,23.46
2017-06-22T01:10:11.126Z,23.44
2017-06-22T01:11:11.358Z,23.37
2017-06-22T01:12:11.297Z,23.37
2017-06-22T01:13:11.235Z,23.32
2017-06-22T01:14:11.172Z,23.31
2017-06-22T01:15:10.812Z,23.34
2017-06-22T01:16:11.052Z,23.37
2017-06-22T01:17:10.985Z,23.37
2017-06-22T01:18:10.773Z,23.32
2017-06-22T01:19:10.865Z,23.37
2017-06-22T01:20:10.803Z,23.37
2017-06-22T01:21:10.436Z,23.34
2017-06-22T01:22:10.688Z,23.39
2017-06-22T01:23:10.769Z,23.25
2017-06-22T01:24:10.254Z,23.36
2017-06-22T01:25:10.490Z,23.32
2017-06-22T01:26:10.427Z,23.34
2017-06-22T01:27:10.367Z,23.34
2017-06-22T01:28:10.453Z,23.34
2017-06-22T01:29:10.245Z,23.31
2017-06-22T01:30:09.877Z,23.27
2017-06-22T01:31:10.116Z,23.28
2017-06-22T01:32:09.754Z,23.31
2017-06-22T01:33:09.994Z,23.37
2017-06-22T01:34:09.929Z,23.37
2017-06-22T01:35:09.869Z,23.4
2017-06-22T01:36:09.808Z,23.37
2017-06-22T01:37:09.443Z,23.36
2017-06-22T01:38:09.683Z,23.32
2017-06-22T01:39:09.624Z,23.34
2017-06-22T01:40:09.557Z,23.28
2017-06-22T01:41:09.498Z,23.28
2017-06-22T01:42:09.436Z,23.28
2017-06-22T01:43:09.370Z,23.36
2017-06-22T01:44:09.311Z,23.31
2017-06-22T01:45:09.251Z,23.27
2017-06-22T01:46:09.204Z,23.28
2017-06-22T01:47:09.128Z,23.34
2017-06-22T01:48:09.069Z,23.37
2017-06-22T01:49:09.251Z,23.31
2017-06-22T01:50:08.939Z,23.36
2017-06-22T01:51:08.875Z,23.31
2017-06-22T01:52:08.811Z,23.27
2017-06-22T01:53:08.451Z,23.4
2017-06-22T01:54:08.788Z,23.31
2017-06-22T01:55:08.627Z,23.32
2017-06-22T01:56:08.568Z,23.34
2017-06-22T01:57:07.900Z,23.25
2017-06-22T01:58:08.446Z,23.27
2017-06-22T01:59:08.685Z,23.31
2017-06-22T02:00:08.320Z,23.28
2017-06-22T02:01:08.257Z,23.34
2017-06-22T02:02:08.192Z,23.28
2017-06-22T02:03:08.129Z,23.28
2017-06-22T02:04:08.069Z,23.27
2017-06-22T02:05:07.707Z,23.31
2017-06-22T02:06:07.943Z,23.31
2017-06-22T02:07:07.576Z,23.24
2017-06-22T02:08:07.819Z,23.28
2017-06-22T02:09:07.753Z,23.31
2017-06-22T02:10:07.691Z,23.31
2017-06-22T02:11:07.631Z,23.27
2017-06-22T02:12:07.569Z,23.31
2017-06-22T02:13:07.506Z,23.28
2017-06-22T02:14:07.144Z,23.31
2017-06-22T02:15:07.386Z,23.24
2017-06-22T02:16:07.524Z,23.24
2017-06-22T02:17:07.265Z,23.27
2017-06-22T02:18:07.197Z,23.27
2017-06-22T02:19:07.141Z,23.27
2017-06-22T02:20:07.319Z,23.24
2017-06-22T02:21:07.010Z,23.25
2017-06-22T02:22:06.951Z,23.39
2017-06-22T02:23:06.912Z,23.27
2017-06-22T02:24:06.823Z,23.27
2017-06-22T02:25:06.761Z,23.27
2017-06-22T02:26:06.702Z,23.21
2017-06-22T02:27:06.338Z,23.21
2017-06-22T02:28:06.571Z,23.25
2017-06-22T02:29:06.511Z,23.28
2017-06-22T02:30:06.463Z,23.25
2017-06-22T02:31:06.089Z,23.21
2017-06-22T02:32:06.327Z,23.23
2017-06-22T02:33:06.266Z,23.23
2017-06-22T02:34:06.205Z,23.2
2017-06-22T02:35:06.143Z,23.23
2017-06-22T02:36:06.076Z,23.2
2017-06-22T02:37:05.715Z,23.21
2017-06-22T02:38:05.952Z,23.23
2017-06-22T02:39:05.892Z,23.23
2017-06-22T02:40:05.981Z,23.23
2017-06-22T02:41:05.764Z,23.27
2017-06-22T02:42:05.704Z,23.25
2017-06-22T02:43:05.645Z,23.24
2017-06-22T02:44:05.585Z,23.25
2017-06-22T02:45:05.241Z,23.21
2017-06-22T02:46:05.455Z,23.24
2017-06-22T02:47:05.392Z,23.25
2017-06-22T02:48:05.328Z,23.23
2017-06-22T02:49:05.269Z,23.21
2017-06-22T02:50:05.219Z,23.18
2017-06-22T02:51:04.846Z,23.25
2017-06-22T02:52:05.081Z,23.18
2017-06-22T02:53:05.019Z,23.23
2017-06-22T02:54:04.958Z,23.18
2017-06-22T02:55:04.905Z,23.24
2017-06-22T02:56:04.548Z,23.17
2017-06-22T02:57:04.773Z,23.21
2017-06-22T02:58:04.757Z,23.25
2017-06-22T02:59:04.344Z,23.24
2017-06-22T03:00:04.583Z,23.28
2017-06-22T03:01:04.536Z,23.25
2017-06-22T03:02:04.466Z,23.25
2017-06-22T03:03:04.399Z,23.21
2017-06-22T03:04:04.333Z,23.24
2017-06-22T03:05:04.270Z,23.25
2017-06-22T03:06:04.210Z,23.27
2017-06-22T03:07:04.148Z,23.23
2017-06-22T03:08:03.790Z,23.23
2017-06-22T03:09:04.027Z,23.21
2017-06-22T03:10:03.960Z,23.21
2017-06-22T03:11:03.898Z,23.27
2017-06-22T03:12:03.837Z,23.2
2017-06-22T03:13:03.779Z,23.15
2017-06-22T03:14:03.410Z,23.2
2017-06-22T03:15:03.657Z,23.15
2017-06-22T03:16:03.589Z,23.23
2017-06-22T03:17:03.534Z,23.23
2017-06-22T03:18:03.466Z,23.18
2017-06-22T03:19:03.404Z,23.2
2017-06-22T03:20:03.591Z,23.23
2017-06-22T03:21:03.276Z,23.13
2017-06-22T03:22:03.212Z,23.23
2017-06-22T03:23:02.871Z,23.2
2017-06-22T03:24:03.089Z,23.21
2017-06-22T03:25:03.026Z,23.24
2017-06-22T03:26:02.968Z,23.18
2017-06-22T03:27:02.900Z,23.18
2017-06-22T03:28:02.838Z,23.24
2017-06-22T03:29:02.777Z,23.12
2017-06-22T03:30:02.714Z,23.18
2017-06-22T03:31:02.660Z,23.18
2017-06-22T03:32:02.287Z,23.12
2017-06-22T03:33:02.530Z,23.23
2017-06-22T03:34:02.468Z,23.12
2017-06-22T03:35:02.403Z,23.1
2017-06-22T03:36:02.339Z,23.13
2017-06-22T03:37:02.297Z,23.15
2017-06-22T03:38:02.215Z,23.15
2017-06-22T03:39:02.167Z,23.15
2017-06-22T03:40:02.091Z,23.2
2017-06-22T03:41:02.038Z,23.12
2017-06-22T03:42:01.967Z,23.1
2017-06-22T03:43:01.904Z,23.18
2017-06-22T03:44:01.841Z,23.12
2017-06-22T03:45:01.779Z,23.08
2017-06-22T03:46:01.722Z,23.06
2017-06-22T03:47:01.654Z,23.15
2017-06-22T03:48:01.592Z,23.12
2017-06-22T03:49:01.531Z,23.18
2017-06-22T03:50:01.470Z,23.13
2017-06-22T03:51:01.407Z,23.15
2017-06-22T03:52:01.343Z,23.21
2017-06-22T03:53:01.290Z,23.13
2017-06-22T03:54:01.222Z,23.09
2017-06-22T03:55:01.157Z,23.18
2017-06-22T03:56:01.097Z,23.17
2017-06-22T03:57:01.036Z,23.1
2017-06-22T03:58:00.970Z,23.17
2017-06-22T03:59:00.908Z,23.17
2017-06-22T04:00:00.859Z,23.18
2017-06-22T04:01:00.786Z,23.15
2017-06-22T04:02:00.927Z,23.1
2017-06-22T04:03:00.658Z,23.06
2017-06-22T04:04:00.296Z,23.13
2017-06-22T04:05:00.541Z,23.15
2017-06-22T04:06:00.469Z,23.15
2017-06-22T04:07:00.415Z,23.23
2017-06-22T04:08:00.348Z,23.15
2017-06-22T04:08:59.989Z,23.17
2017-06-22T04:10:00.225Z,23.17
2017-06-22T04:11:00.160Z,23.21
2017-06-22T04:12:00.102Z,23.24
2017-06-22T04:13:00.035Z,23.24
2017-06-22T04:13:59.972Z,23.25
2017-06-22T04:14:59.910Z,23.23
2017-06-22T04:15:59.851Z,23.17
2017-06-22T04:16:59.484Z,23.18
2017-06-22T04:17:59.424Z,23.25
2017-06-22T04:18:59.659Z,23.18
2017-06-22T04:19:59.607Z,23.18
2017-06-22T04:20:59.539Z,23.25
2017-06-22T04:21:59.474Z,23.27
2017-06-22T04:22:59.414Z,23.24
2017-06-22T04:23:59.348Z,23.24
2017-06-22T04:24:59.288Z,23.17
2017-06-22T04:25:59.225Z,23.2
2017-06-22T04:26:59.164Z,23.23
2017-06-22T04:27:59.105Z,23.17
2017-06-22T04:28:59.035Z,23.21
2017-06-22T04:29:58.679Z,23.27
2017-06-22T04:30:58.916Z,23.23
2017-06-22T04:31:58.847Z,23.25
2017-06-22T04:32:58.792Z,23.23
2017-06-22T04:33:58.423Z,23.24
2017-06-22T04:34:58.662Z,23.23
2017-06-22T04:35:58.603Z,23.15
2017-06-22T04:36:58.541Z,23.23
2017-06-22T04:37:58.178Z,23.25
2017-06-22T04:38:58.445Z,23.27
2017-06-22T04:39:58.357Z,23.24
2017-06-22T04:40:58.293Z,23.2
2017-06-22T04:41:58.230Z,23.23
2017-06-22T04:42:58.179Z,23.2
2017-06-22T04:43:57.801Z,23.25
2017-06-22T04:44:58.043Z,23.2
2017-06-22T04:45:57.985Z,23.23
2017-06-22T04:46:57.921Z,23.25
2017-06-22T04:47:57.854Z,23.2
2017-06-22T04:48:57.792Z,23.28
2017-06-22T04:49:57.731Z,23.24
2017-06-22T04:50:57.691Z,23.27
2017-06-22T04:51:57.608Z,23.27
2017-06-22T04:52:57.559Z,23.23
2017-06-22T04:53:57.481Z,23.24
2017-06-22T04:54:57.420Z,23.21
2017-06-22T04:55:57.356Z,23.23
2017-06-22T04:56:57.294Z,23.24
2017-06-22T04:57:57.230Z,23.24
2017-06-22T04:58:57.170Z,23.2
2017-06-22T04:59:57.109Z,23.28
2017-06-22T05:00:57.045Z,23.2
2017-06-22T05:01:56.983Z,23.23
2017-06-22T05:02:56.924Z,23.25
2017-06-22T05:03:56.861Z,23.2
2017-06-22T05:04:56.494Z,23.2
2017-06-22T05:05:57.036Z,23.21
2017-06-22T05:06:56.677Z,23.21
2017-06-22T05:07:56.610Z,23.28
2017-06-22T05:08:55.947Z,23.21
2017-06-22T05:09:56.188Z,23.23
2017-06-22T05:10:56.579Z,23.23
2017-06-22T05:11:56.359Z,23.23
2017-06-22T05:12:56.300Z,23.24
2017-06-22T05:13:56.236Z,23.21
2017-06-22T05:14:56.171Z,23.23
2017-06-22T05:15:56.060Z,23.25
2017-06-22T05:16:56.057Z,23.25
2017-06-22T05:17:55.987Z,23.2
2017-06-22T05:18:55.620Z,23.21
2017-06-22T05:19:55.865Z,23.21
2017-06-22T05:20:55.799Z,23.24
2017-06-22T05:21:55.736Z,23.21
2017-06-22T05:22:55.676Z,23.21
2017-06-22T05:23:55.611Z,23.21
2017-06-22T05:24:55.549Z,23.24
2017-06-22T05:25:55.489Z,23.2
2017-06-22T05:26:55.426Z,23.24
2017-06-22T05:27:55.361Z,23.21
2017-06-22T05:28:55.299Z,23.24
2017-06-22T05:29:55.238Z,23.21
2017-06-22T05:30:55.178Z,23.24
2017-06-22T05:31:55.118Z,23.2
2017-06-22T05:32:55.054Z,23.24
2017-06-22T05:33:54.989Z,23.21
2017-06-22T05:34:54.930Z,23.25
2017-06-22T05:35:54.865Z,23.23
2017-06-22T05:36:54.806Z,23.2
2017-06-22T05:37:54.438Z,23.21
2017-06-22T05:38:54.685Z,23.23
2017-06-22T05:39:54.616Z,23.23
2017-06-22T05:40:54.249Z,23.23
2017-06-22T05:41:54.379Z,23.25
2017-06-22T05:42:53.826Z,23.28
2017-06-22T05:43:54.069Z,23.21
2017-06-22T05:44:54.306Z,23.24
2017-06-22T05:45:54.253Z,23.24
2017-06-22T05:46:54.184Z,23.31
2017-06-22T05:47:54.120Z,23.21
2017-06-22T05:48:53.776Z,23.21
2017-06-22T05:49:53.996Z,23.18
2017-06-22T05:50:53.931Z,23.27
2017-06-22T05:51:53.868Z,23.25
2017-06-22T05:52:53.806Z,23.24
2017-06-22T05:53:53.447Z,23.27
2017-06-22T05:54:53.681Z,23.21
2017-06-22T05:55:53.622Z,23.23
2017-06-22T05:56:53.562Z,23.25
2017-06-22T05:57:53.193Z,23.25
2017-06-22T05:58:53.133Z,23.2
2017-06-22T05:59:53.069Z,23.21
2017-06-22T06:00:53.308Z,23.23
2017-06-22T06:01:53.245Z,23.23
2017-06-22T06:02:53.183Z,23.21
2017-06-22T06:03:53.122Z,23.27
2017-06-22T06:04:53.064Z,23.24
2017-06-22T06:05:52.696Z,23.21
2017-06-22T06:06:52.632Z,23.2
2017-06-22T06:07:52.570Z,23.2
2017-06-22T06:08:52.506Z,23.23
2017-06-22T06:09:52.745Z,23.23
2017-06-22T06:10:52.685Z,23.24
2017-06-22T06:11:52.622Z,23.25
2017-06-22T06:12:52.557Z,23.25
2017-06-22T06:13:52.502Z,23.24
2017-06-22T06:14:52.436Z,23.25
2017-06-22T06:15:52.070Z,23.2
2017-06-22T06:16:52.309Z,23.27
2017-06-22T06:17:52.252Z,23.21
2017-06-22T06:18:52.187Z,23.18
2017-06-22T06:19:52.124Z,23.2
2017-06-22T06:20:52.064Z,23.25
2017-06-22T06:21:52.001Z,23.24
2017-06-22T06:22:51.637Z,23.23
2017-06-22T06:23:51.877Z,23.23
2017-06-22T06:24:51.814Z,23.24
2017-06-22T06:25:51.752Z,23.2
2017-06-22T06:26:51.387Z,23.28
2017-06-22T06:27:51.026Z,23.25
2017-06-22T06:28:51.565Z,23.23
2017-06-22T06:29:51.507Z,23.21
2017-06-22T06:30:51.437Z,23.18
2017-06-22T06:31:51.379Z,23.23
2017-06-22T06:32:51.324Z,23.2
2017-06-22T06:33:51.252Z,23.27
2017-06-22T06:34:51.194Z,23.21
2017-06-22T06:35:51.128Z,23.17
2017-06-22T06:36:51.074Z,23.24
2017-06-22T06:37:51.005Z,23.21
2017-06-22T06:38:50.950Z,23.23
2017-06-22T06:39:50.880Z,23.23
2017-06-22T06:40:50.820Z,23.28
2017-06-22T06:41:50.764Z,23.24
2017-06-22T06:42:50.692Z,23.24
2017-06-22T06:43:50.634Z,23.21
2017-06-22T06:44:50.568Z,23.17
2017-06-22T06:45:50.505Z,23.2
2017-06-22T06:46:50.442Z,23.24
2017-06-22T06:47:50.382Z,23.23
2017-06-22T06:48:50.017Z,23.2
2017-06-22T06:49:50.267Z,23.25
2017-06-22T06:50:49.889Z,23.24
2017-06-22T06:51:50.134Z,23.24
2017-06-22T06:52:50.066Z,23.23
2017-06-22T06:53:50.010Z,23.24
2017-06-22T06:54:49.946Z,23.25
2017-06-22T06:55:49.883Z,23.27
2017-06-22T06:56:49.823Z,23.21
2017-06-22T06:57:49.161Z,23.24
2017-06-22T06:58:49.695Z,23.23
2017-06-22T06:59:49.639Z,23.27
2017-06-22T07:00:48.986Z,23.23
2017-06-22T07:01:48.917Z,23.25
2017-06-22T07:02:49.447Z,23.28
2017-06-22T07:03:49.381Z,23.37
2017-06-22T07:04:49.323Z,23.27
2017-06-22T07:05:48.657Z,23.24
2017-06-22T07:06:48.894Z,23.32
2017-06-22T07:07:48.865Z,23.23
2017-06-22T07:08:48.468Z,23.23
2017-06-22T07:09:49.011Z,23.21
2017-06-22T07:10:48.647Z,23.21
2017-06-22T07:11:48.886Z,23.21
2017-06-22T07:12:48.826Z,23.25
2017-06-22T07:13:48.761Z,23.27
2017-06-22T07:14:48.700Z,23.24
2017-06-22T07:15:48.637Z,23.39
2017-06-22T07:16:48.275Z,23.25
2017-06-22T07:17:48.512Z,23.23
2017-06-22T07:18:48.456Z,23.2
2017-06-22T07:19:48.387Z,23.31
2017-06-22T07:20:48.327Z,23.24
2017-06-22T07:21:48.271Z,23.25
2017-06-22T07:22:47.900Z,23.23
2017-06-22T07:23:47.838Z,23.2
2017-06-22T07:24:48.075Z,23.25
2017-06-22T07:25:47.409Z,23.21
2017-06-22T07:26:47.649Z,23.27
2017-06-22T07:27:47.891Z,23.24
2017-06-22T07:28:47.529Z,23.21
2017-06-22T07:29:47.461Z,23.25
2017-06-22T07:30:47.702Z,23.2
2017-06-22T07:31:47.339Z,23.23
2017-06-22T07:32:47.576Z,23.25
2017-06-22T07:33:47.515Z,23.24
2017-06-22T07:34:47.453Z,23.25
2017-06-22T07:35:47.388Z,23.23
2017-06-22T07:36:47.334Z,23.21
2017-06-22T07:37:46.967Z,23.24
2017-06-22T07:38:47.209Z,23.25
2017-06-22T07:39:46.842Z,23.21
2017-06-22T07:40:47.079Z,23.23
2017-06-22T07:41:47.017Z,23.23
2017-06-22T07:42:46.956Z,23.24
2017-06-22T07:43:46.593Z,23.25
2017-06-22T07:44:46.827Z,23.25
2017-06-22T07:45:46.778Z,23.21
2017-06-22T07:46:46.705Z,23.18
2017-06-22T07:47:46.667Z,23.23
2017-06-22T07:48:46.580Z,23.18
2017-06-22T07:49:46.521Z,23.21
2017-06-22T07:50:46.455Z,23.21
2017-06-22T07:51:46.398Z,23.24
2017-06-22T07:52:45.759Z,23.25
2017-06-22T07:53:46.294Z,23.25
2017-06-22T07:54:46.230Z,23.25
2017-06-22T07:55:46.242Z,23.27
2017-06-22T07:56:46.082Z,23.25
2017-06-22T07:57:46.023Z,23.18
2017-06-22T07:58:46.063Z,23.25
2017-06-22T07:59:45.648Z,23.25
2017-06-22T08:00:45.704Z,23.21
2017-06-22T08:01:45.496Z,23.25
2017-06-22T08:02:45.133Z,23.28
2017-06-22T08:03:45.561Z,23.24
2017-06-22T08:04:45.297Z,23.24
2017-06-22T08:05:45.219Z,23.21
2017-06-22T08:06:45.459Z,23.23
2017-06-22T08:07:45.397Z,23.28
2017-06-22T08:08:45.365Z,23.24
2017-06-22T08:09:45.271Z,23.21
2017-06-22T08:10:44.909Z,23.2
2017-06-22T08:11:45.151Z,23.2
2017-06-22T08:12:44.788Z,23.25
2017-06-22T08:13:45.026Z,23.18
2017-06-22T08:14:44.963Z,23.21
2017-06-22T08:15:44.903Z,23.23
2017-06-22T08:16:44.836Z,23.23
2017-06-22T08:17:44.774Z,23.27
2017-06-22T08:18:44.708Z,23.31
2017-06-22T08:19:44.350Z,23.25
2017-06-22T08:20:44.587Z,23.28
2017-06-22T08:21:44.536Z,23.24
2017-06-22T08:22:44.461Z,23.25
2017-06-22T08:23:44.401Z,23.28
2017-06-22T08:24:44.340Z,23.27
2017-06-22T08:25:44.278Z,23.25
2017-06-22T08:26:43.912Z,23.21
2017-06-22T08:27:44.149Z,23.24
2017-06-22T08:28:44.092Z,23.28
2017-06-22T08:29:44.023Z,23.27
2017-06-22T08:30:43.669Z,23.27
2017-06-22T08:31:43.938Z,23.23
2017-06-22T08:32:43.842Z,23.27
2017-06-22T08:33:43.476Z,23.27
2017-06-22T08:34:43.717Z,23.24
2017-06-22T08:35:43.652Z,23.27
2017-06-22T08:36:43.589Z,23.25
2017-06-22T08:37:43.526Z,23.21
2017-06-22T08:38:43.160Z,23.25
2017-06-22T08:39:43.106Z,23.31
2017-06-22T08:40:43.037Z,23.31
2017-06-22T08:41:42.979Z,23.27
2017-06-22T08:42:43.218Z,23.28
2017-06-22T08:43:43.158Z,23.25
2017-06-22T08:44:42.793Z,23.27
2017-06-22T08:45:43.032Z,23.28
2017-06-22T08:46:42.668Z,23.27
2017-06-22T08:47:42.907Z,23.28
2017-06-22T08:48:42.843Z,23.27
2017-06-22T08:49:42.477Z,23.34
2017-06-22T08:50:42.419Z,23.28
2017-06-22T08:51:42.051Z,23.24
2017-06-22T08:52:42.592Z,23.25
2017-06-22T08:53:42.537Z,23.25
2017-06-22T08:54:42.466Z,23.27
2017-06-22T08:55:42.410Z,23.28
2017-06-22T08:56:42.353Z,23.28
2017-06-22T08:57:42.282Z,23.28
2017-06-22T08:58:42.222Z,23.27
2017-06-22T08:59:41.857Z,23.24
2017-06-22T09:00:42.092Z,23.32
2017-06-22T09:01:42.033Z,23.31
2017-06-22T09:02:41.974Z,23.25
2017-06-22T09:03:41.907Z,23.31
2017-06-22T09:04:42.043Z,23.32
2017-06-22T09:05:41.780Z,23.32
2017-06-22T09:06:41.723Z,23.28
2017-06-22T09:07:41.661Z,23.32
2017-06-22T09:08:41.295Z,23.32
2017-06-22T09:09:41.537Z,23.31
2017-06-22T09:10:40.867Z,23.36
2017-06-22T09:11:40.805Z,23.27
2017-06-22T09:12:41.350Z,23.31
2017-06-22T09:13:41.286Z,23.27
2017-06-22T09:14:40.935Z,23.36
2017-06-22T09:15:41.161Z,23.36
2017-06-22T09:16:41.097Z,23.34
2017-06-22T09:17:40.735Z,23.25
2017-06-22T09:18:40.982Z,23.37
2017-06-22T09:19:40.914Z,23.34
2017-06-22T09:20:41.233Z,23.31
2017-06-22T09:21:40.497Z,23.36
2017-06-22T09:22:40.724Z,23.32
2017-06-22T09:23:40.662Z,23.37
2017-06-22T09:24:40.602Z,23.36
2017-06-22T09:25:40.576Z,23.31
2017-06-22T09:26:40.478Z,23.34
2017-06-22T09:27:40.417Z,23.31
2017-06-22T09:28:40.351Z,23.28
2017-06-22T09:29:39.986Z,23.34
2017-06-22T09:30:40.230Z,23.36
2017-06-22T09:31:40.164Z,23.39
2017-06-22T09:32:39.801Z,23.31
2017-06-22T09:33:39.736Z,23.4
2017-06-22T09:34:40.006Z,23.34
2017-06-22T09:35:39.621Z,23.25
2017-06-22T09:36:39.879Z,23.34
2017-06-22T09:37:39.797Z,23.37
2017-06-22T09:38:39.728Z,23.32
2017-06-22T09:39:39.669Z,23.37
2017-06-22T09:40:39.608Z,23.27
2017-06-22T09:41:39.283Z,23.31
2017-06-22T09:42:39.486Z,23.34
2017-06-22T09:43:39.419Z,23.25
2017-06-22T09:44:39.356Z,23.32
2017-06-22T09:45:38.994Z,23.34
2017-06-22T09:46:39.231Z,23.28
2017-06-22T09:47:38.870Z,23.31
2017-06-22T09:48:39.117Z,23.31
2017-06-22T09:49:39.060Z,23.28
2017-06-22T09:50:38.983Z,23.25
2017-06-22T09:51:38.919Z,23.37
2017-06-22T09:52:38.866Z,23.4
2017-06-22T09:53:38.797Z,23.36
2017-06-22T09:54:38.734Z,23.37
2017-06-22T09:55:38.673Z,23.34
2017-06-22T09:56:38.612Z,23.39
2017-06-22T09:57:38.574Z,23.24
2017-06-22T09:58:38.489Z,23.34
2017-06-22T09:59:38.422Z,23.4
2017-06-22T10:00:38.368Z,23.37
2017-06-22T10:01:38.532Z,23.46
2017-06-22T10:02:38.236Z,23.27
2017-06-22T10:03:38.175Z,23.37
2017-06-22T10:04:38.112Z,23.27
2017-06-22T10:05:38.052Z,23.34
2017-06-22T10:06:37.987Z,23.37
2017-06-22T10:07:37.928Z,23.37
2017-06-22T10:08:37.869Z,23.37
2017-06-22T10:09:37.802Z,23.31
2017-06-22T10:10:37.140Z,23.31
2017-06-22T10:11:37.681Z,23.36
2017-06-22T10:12:37.615Z,23.34
2017-06-22T10:13:37.251Z,23.47
2017-06-22T10:14:37.191Z,23.36
2017-06-22T10:15:37.429Z,23.36
2017-06-22T10:16:37.366Z,23.37
2017-06-22T10:17:37.030Z,23.37
2017-06-22T10:18:37.240Z,23.47
2017-06-22T10:19:37.179Z,23.36
2017-06-22T10:20:36.813Z,23.39
2017-06-22T10:21:37.056Z,23.4
2017-06-22T10:22:36.992Z,23.41
2017-06-22T10:23:36.936Z,23.4
2017-06-22T10:24:36.866Z,23.41
2017-06-22T10:25:36.806Z,23.41
2017-06-22T10:26:36.743Z,23.46
2017-06-22T10:27:36.692Z,23.44
2017-06-22T10:28:36.624Z,23.46
2017-06-22T10:29:36.558Z,23.44
2017-06-22T10:30:36.496Z,23.47
2017-06-22T10:31:36.432Z,23.43
2017-06-22T10:32:36.376Z,23.46
2017-06-22T10:33:36.319Z,23.41
2017-06-22T10:34:36.250Z,23.44
2017-06-22T10:35:36.034Z,23.44
2017-06-22T10:36:36.119Z,23.44
2017-06-22T10:37:35.759Z,23.43
2017-06-22T10:38:35.998Z,23.41
2017-06-22T10:39:35.636Z,23.4
2017-06-22T10:40:35.573Z,23.44
2017-06-22T10:41:35.810Z,23.46
2017-06-22T10:42:35.168Z,23.5
2017-06-22T10:43:35.690Z,23.47
2017-06-22T10:44:35.321Z,23.44
2017-06-22T10:45:35.561Z,23.43
2017-06-22T10:46:35.500Z,23.43
2017-06-22T10:47:35.440Z,23.5
2017-06-22T10:48:35.378Z,23.44
2017-06-22T10:49:35.315Z,23.46
2017-06-22T10:50:35.461Z,23.51
2017-06-22T10:51:35.189Z,23.5
2017-06-22T10:52:34.826Z,23.43
2017-06-22T10:53:34.762Z,23.51
2017-06-22T10:54:35.004Z,23.5
2017-06-22T10:55:34.638Z,23.46
2017-06-22T10:56:34.878Z,23.47
2017-06-22T10:57:34.816Z,23.41
2017-06-22T10:58:34.754Z,23.5
2017-06-22T10:59:34.389Z,23.44
2017-06-22T11:00:34.630Z,23.5
2017-06-22T11:01:34.570Z,23.46
2017-06-22T11:02:34.201Z,23.43
2017-06-22T11:03:34.444Z,23.43
2017-06-22T11:04:34.383Z,23.44
2017-06-22T11:05:34.322Z,23.41
2017-06-22T11:06:34.260Z,23.47
2017-06-22T11:07:33.895Z,23.46
2017-06-22T11:08:34.135Z,23.41
2017-06-22T11:09:33.771Z,23.39
2017-06-22T11:10:33.727Z,23.44
2017-06-22T11:11:33.646Z,23.37
2017-06-22T11:12:33.886Z,23.4
2017-06-22T11:13:33.824Z,23.31
2017-06-22T11:14:33.766Z,23.25
2017-06-22T11:15:34.044Z,23.25
2017-06-22T11:16:33.640Z,23.34
2017-06-22T11:17:33.572Z,23.32
2017-06-22T11:18:33.213Z,23.36
2017-06-22T11:19:33.147Z,23.34
2017-06-22T11:20:33.085Z,23.25
2017-06-22T11:21:33.027Z,23.28
2017-06-22T11:22:32.967Z,23.41
2017-06-22T11:23:33.204Z,23.4
2017-06-22T11:24:33.141Z,23.32
2017-06-22T11:25:33.182Z,23.32
2017-06-22T11:26:33.016Z,23.25
2017-06-22T11:27:32.952Z,23.31
2017-06-22T11:28:32.888Z,23.31
2017-06-22T11:29:32.837Z,23.27
2017-06-22T11:30:47.377Z,23.32
2017-06-22T11:31:32.706Z,23.23
2017-06-22T11:32:32.854Z,23.21
2017-06-22T11:33:32.276Z,23.23
2017-06-22T11:34:31.912Z,23.25
2017-06-22T11:35:32.453Z,23.21
2017-06-22T11:36:32.090Z,23.2
2017-06-22T11:37:32.333Z,23.24
2017-06-22T11:38:32.265Z,23.2
2017-06-22T11:39:32.208Z,23.21
2017-06-22T11:40:32.141Z,23.2
2017-06-22T11:41:32.079Z,23.24
2017-06-22T11:42:32.162Z,23.23
2017-06-22T11:43:32.128Z,23.25
2017-06-22T11:44:31.974Z,23.23
2017-06-22T11:45:31.988Z,23.2
2017-06-22T11:46:31.899Z,23.2
2017-06-22T11:47:31.709Z,23.2
2017-06-22T11:48:31.641Z,23.2
2017-06-22T11:49:31.277Z,23.17
2017-06-22T11:50:31.533Z,23.12
2017-06-22T11:51:31.455Z,23.25
2017-06-22T11:52:31.408Z,23.23
2017-06-22T11:53:31.331Z,23.21
2017-06-22T11:54:31.271Z,23.12
2017-06-22T11:55:31.208Z,23.18
2017-06-22T11:56:31.144Z,23.2
2017-06-22T11:57:31.085Z,23.13
2017-06-22T11:58:31.016Z,23.2
2017-06-22T11:59:30.980Z,23.1
2017-06-22T12:00:30.894Z,23.13
2017-06-22T12:01:30.532Z,23.15
2017-06-22T12:02:30.465Z,23.08
2017-06-22T12:03:30.705Z,23.18
2017-06-22T12:04:30.341Z,23.15
2017-06-22T12:05:30.487Z,23.1
2017-06-22T12:06:30.518Z,23.13
2017-06-22T12:07:30.454Z,23.12
2017-06-22T12:08:30.395Z,23.1
2017-06-22T12:09:30.329Z,23.08
2017-06-22T12:10:30.169Z,23.13
2017-06-22T12:11:30.208Z,23.09
2017-06-22T12:12:30.169Z,23.09
2017-06-22T12:13:29.781Z,23.12
2017-06-22T12:14:30.020Z,23.09
2017-06-22T12:15:29.952Z,23.09
2017-06-22T12:16:29.892Z,23.1
2017-06-22T12:17:29.833Z,23.18
2017-06-22T12:18:29.767Z,23.09
2017-06-22T12:19:29.708Z,23.1
2017-06-22T12:20:29.339Z,23.09
2017-06-22T12:21:29.580Z,23.12
2017-06-22T12:22:29.219Z,23.2
2017-06-22T12:23:29.458Z,23.17
2017-06-22T12:24:29.391Z,23.09
2017-06-22T12:25:29.329Z,23.13
2017-06-22T12:26:29.270Z,23.15
2017-06-22T12:27:29.207Z,23.08
2017-06-22T12:28:29.143Z,23.13
2017-06-22T12:29:29.096Z,23.09
2017-06-22T12:30:28.460Z,23.08
2017-06-22T12:31:28.666Z,23.1
2017-06-22T12:32:28.589Z,23.08
2017-06-22T12:33:28.832Z,23.1
2017-06-22T12:34:28.473Z,23.08
2017-06-22T12:35:28.706Z,23.08
2017-06-22T12:36:28.646Z,23.13
2017-06-22T12:37:28.684Z,23.08
2017-06-22T12:38:28.519Z,23.03
2017-06-22T12:39:28.151Z,23.05
2017-06-22T12:40:28.392Z,23.13
2017-06-22T12:41:28.030Z,23.1
2017-06-22T12:42:28.270Z,23.13
2017-06-22T12:43:28.204Z,23.09
2017-06-22T12:44:28.141Z,23.08
2017-06-22T12:45:28.079Z,23.08
2017-06-22T12:46:28.022Z,23.12
2017-06-22T12:47:27.981Z,23.1
2017-06-22T12:48:27.892Z,23.08
2017-06-22T12:49:27.829Z,23.08
2017-06-22T12:50:27.765Z,23.05
2017-06-22T12:51:27.705Z,23.1
2017-06-22T12:52:27.040Z,23.02
2017-06-22T12:53:27.580Z,23.12
2017-06-22T12:54:27.517Z,23.05
2017-06-22T12:55:27.155Z,23.02